createdAt,value
2017-09-18T00:00:24.423Z,6.33
2017-09-18T00:02:54.957Z,11.87
2017-09-18T00:05:26.624Z,6.10
2017-09-18T00:07:58.763Z,10.10
2017-09-18T00:10:30.077Z,7.00
2017-09-18T00:13:01.803Z,7.07
2017-09-18T00:15:34.020Z,10.60
2017-09-18T00:18:04.375Z,7.07
2017-09-18T00:20:34.854Z,9.93
2017-09-18T00:23:05.408Z,5.50
2017-09-18T00:25:36.515Z,6.57
2017-09-18T00:28:07.358Z,10.57
2017-09-18T00:30:37.386Z,6.10
2017-09-18T00:33:08.244Z,8.73
2017-09-18T00:35:39.460Z,5.50
2017-09-18T00:38:10.250Z,7.63
2017-09-18T00:40:40.994Z,6.80
2017-09-18T00:43:20.184Z,13.50
2017-09-18T00:45:51.658Z,6.27
2017-09-18T00:48:22.511Z,11.73
2017-09-18T00:50:55.715Z,6.23
2017-09-18T00:53:27.329Z,7.13
2017-09-18T00:56:01.921Z,13.17
2017-09-18T00:58:33.857Z,11.50
2017-09-18T01:01:05.204Z,12.27
2017-09-18T01:03:36.453Z,7.07
2017-09-18T01:06:07.007Z,6.03
2017-09-18T01:08:38.620Z,12.90
2017-09-18T01:11:10.303Z,10.60
2017-09-18T01:13:41.725Z,12.50
2017-09-18T01:16:14.128Z,8.33
2017-09-18T01:18:44.828Z,7.60
2017-09-18T01:21:16.104Z,10.87
2017-09-18T01:23:47.401Z,7.57
2017-09-18T01:26:18.042Z,13.73
2017-09-18T01:28:49.046Z,13.10
2017-09-18T01:31:19.804Z,8.67
2017-09-18T01:33:51.465Z,8.40
2017-09-18T01:36:22.523Z,12.00
2017-09-18T01:38:55.009Z,10.70
2017-09-18T01:41:25.628Z,9.10
2017-09-18T01:44:06.827Z,10.40
2017-09-18T01:46:39.843Z,11.93
2017-09-18T01:49:11.206Z,13.93
2017-09-18T01:51:42.345Z,8.27
2017-09-18T01:54:18.139Z,17.37
2017-09-18T01:56:50.340Z,11.30
2017-09-18T01:59:22.798Z,7.53
2017-09-18T02:01:58.137Z,20.90
2017-09-18T02:04:29.569Z,12.40
2017-09-18T02:07:00.927Z,10.10
2017-09-18T02:09:32.457Z,7.20
2017-09-18T02:12:03.751Z,9.30
2017-09-18T02:14:34.331Z,9.10
2017-09-18T02:17:05.411Z,8.50
2017-09-18T02:19:39.320Z,8.27
2017-09-18T02:22:11.960Z,9.00
2017-09-18T02:24:42.539Z,6.80
2017-09-18T02:27:13.874Z,7.20
2017-09-18T02:29:45.027Z,18.10
2017-09-18T02:32:16.673Z,10.17
2017-09-18T02:34:47.990Z,7.87
2017-09-18T02:37:21.838Z,8.83
2017-09-18T02:39:52.471Z,8.47
2017-09-18T02:42:23.304Z,8.00
2017-09-18T02:44:54.446Z,11.63
2017-09-18T02:47:25.601Z,9.97
2017-09-18T02:49:56.945Z,10.13
2017-09-18T02:52:28.647Z,14.37
2017-09-18T02:54:59.223Z,10.17
2017-09-18T02:57:39.270Z,13.00
2017-09-18T03:00:11.290Z,10.93
2017-09-18T03:02:41.724Z,13.10
2017-09-18T03:05:13.573Z,8.17
2017-09-18T03:07:44.269Z,11.30
2017-09-18T03:10:15.098Z,8.60
2017-09-18T03:12:46.392Z,9.63
2017-09-18T03:15:17.276Z,12.53
2017-09-18T03:17:48.020Z,13.53
2017-09-18T03:20:20.080Z,11.73
2017-09-18T03:22:51.015Z,18.80
2017-09-18T03:25:23.211Z,16.70
2017-09-18T03:27:54.112Z,11.30
2017-09-18T03:30:26.659Z,16.07
2017-09-18T03:32:57.564Z,20.10
2017-09-18T03:35:29.944Z,10.70
2017-09-18T03:38:01.295Z,8.40
2017-09-18T03:40:32.546Z,17.80
2017-09-18T03:43:04.140Z,8.77
2017-09-18T03:45:37.880Z,11.27
2017-09-18T03:48:16.952Z,8.87
2017-09-18T03:50:48.592Z,18.07
2017-09-18T03:53:19.895Z,17.77
2017-09-18T03:55:53.571Z,17.07
2017-09-18T03:58:25.050Z,15.30
2017-09-18T04:00:56.220Z,19.97
2017-09-18T04:03:28.288Z,18.57
2017-09-18T04:05:59.227Z,22.43
2017-09-18T04:08:30.612Z,15.73
2017-09-18T04:11:03.407Z,22.30
2017-09-18T04:13:33.827Z,29.50
2017-09-18T04:16:06.071Z,17.60
2017-09-18T04:18:36.760Z,19.47
2017-09-18T04:21:08.803Z,20.63
2017-09-18T04:23:40.528Z,18.83
2017-09-18T04:26:16.169Z,12.70
2017-09-18T04:28:47.200Z,22.33
2017-09-18T04:31:19.008Z,15.13
2017-09-18T04:33:49.913Z,13.10
2017-09-18T04:36:23.905Z,22.07
2017-09-18T04:38:54.623Z,19.23
2017-09-18T04:41:27.286Z,21.63
2017-09-18T04:43:57.995Z,21.03
2017-09-18T04:46:29.536Z,14.07
2017-09-18T04:49:00.510Z,20.53
2017-09-18T04:51:34.346Z,16.43
2017-09-18T04:54:05.431Z,26.47
2017-09-18T04:56:36.826Z,18.87
2017-09-18T04:59:07.919Z,9.97
2017-09-18T05:01:38.846Z,18.67
2017-09-18T05:04:10.181Z,19.33
2017-09-18T05:06:41.966Z,39.83
2017-09-18T05:09:12.545Z,18.03
2017-09-18T05:11:44.360Z,33.73
2017-09-18T05:14:15.808Z,23.67
2017-09-18T05:16:48.090Z,25.23
2017-09-18T05:19:19.472Z,24.20
2017-09-18T05:21:50.362Z,23.50
2017-09-18T05:24:22.531Z,20.80
2017-09-18T05:26:54.470Z,22.20
2017-09-18T05:29:25.911Z,19.13
2017-09-18T05:31:58.082Z,21.10
2017-09-18T05:34:30.422Z,28.07
2017-09-18T05:37:04.042Z,22.07
2017-09-18T05:39:36.216Z,33.83
2017-09-18T05:42:07.228Z,21.40
2017-09-18T05:44:38.113Z,33.17
2017-09-18T05:47:12.957Z,40.40
2017-09-18T05:49:44.260Z,35.90
2017-09-18T05:52:15.485Z,29.33
2017-09-18T05:54:49.145Z,38.80
2017-09-18T05:57:20.300Z,38.47
2017-09-18T05:59:51.992Z,42.13
2017-09-18T06:02:30.841Z,47.80
2017-09-18T06:05:01.795Z,49.70
2017-09-18T06:07:39.034Z,33.17
2017-09-18T06:10:10.104Z,50.50
2017-09-18T06:12:42.101Z,51.20
2017-09-18T06:15:13.434Z,54.77
2017-09-18T06:17:44.388Z,54.63
2017-09-18T06:20:15.091Z,58.33
2017-09-18T06:22:47.688Z,60.67
2017-09-18T06:25:18.730Z,59.50
2017-09-18T06:27:50.815Z,44.43
2017-09-18T06:30:22.149Z,55.00
2017-09-18T06:32:56.236Z,48.07
2017-09-18T06:35:27.708Z,52.23
2017-09-18T06:37:59.259Z,48.87
2017-09-18T06:40:30.006Z,47.37
2017-09-18T06:43:00.688Z,46.23
2017-09-18T06:45:31.983Z,48.40
2017-09-18T06:48:03.245Z,59.80
2017-09-18T06:50:34.146Z,51.90
2017-09-18T06:53:04.883Z,60.13
2017-09-18T06:55:37.362Z,52.37
2017-09-18T06:58:10.180Z,58.33
2017-09-18T07:00:41.611Z,44.70
2017-09-18T07:03:12.957Z,45.47
2017-09-18T07:05:44.393Z,44.53
2017-09-18T07:08:15.641Z,42.90
2017-09-18T07:10:47.863Z,39.10
2017-09-18T07:13:20.555Z,42.97
2017-09-18T07:15:51.337Z,42.60
2017-09-18T07:18:21.902Z,46.00
2017-09-18T07:20:52.466Z,38.93
2017-09-18T07:23:23.427Z,42.40
2017-09-18T07:25:59.568Z,35.70
2017-09-18T07:28:30.284Z,36.97
2017-09-18T07:31:01.037Z,36.83
2017-09-18T07:33:31.651Z,36.30
2017-09-18T07:36:04.385Z,30.40
2017-09-18T07:38:34.835Z,27.23
2017-09-18T07:41:05.951Z,34.57
2017-09-18T07:43:37.791Z,36.60
2017-09-18T07:46:09.244Z,27.53
2017-09-18T07:48:40.178Z,22.50
2017-09-18T07:51:10.752Z,29.70
2017-09-18T07:53:42.509Z,29.90
2017-09-18T07:56:13.764Z,26.63
2017-09-18T07:58:44.435Z,31.40
2017-09-18T08:01:15.338Z,31.87
2017-09-18T08:03:46.422Z,36.70
2017-09-18T08:06:17.554Z,31.80
2017-09-18T08:08:49.125Z,30.67
2017-09-18T08:11:19.839Z,34.10
2017-09-18T08:13:50.340Z,34.43
2017-09-18T08:16:21.587Z,33.60
2017-09-18T08:18:53.250Z,33.80
2017-09-18T08:21:23.989Z,32.53
2017-09-18T08:23:54.503Z,32.97
2017-09-18T08:26:25.257Z,33.23
2017-09-18T08:28:55.666Z,29.77
2017-09-18T08:31:26.175Z,33.90
2017-09-18T08:33:56.683Z,47.73
2017-09-18T08:36:27.263Z,35.97
2017-09-18T08:38:58.079Z,40.63
2017-09-18T08:41:30.107Z,45.50
2017-09-18T08:44:01.924Z,46.90
2017-09-18T08:46:32.921Z,56.63
2017-09-18T08:49:04.118Z,51.80
2017-09-18T08:51:35.402Z,56.40
2017-09-18T08:54:07.538Z,53.73
2017-09-18T08:56:40.186Z,59.27
2017-09-18T08:59:11.005Z,55.90
2017-09-18T09:01:42.792Z,63.47
2017-09-18T09:04:14.118Z,57.53
2017-09-18T09:06:45.606Z,66.50
2017-09-18T09:09:16.267Z,66.27
2017-09-18T09:11:48.601Z,73.93
2017-09-18T09:14:19.609Z,56.83
2017-09-18T09:16:50.584Z,64.13
2017-09-18T09:19:21.674Z,58.27
2017-09-18T09:21:53.892Z,62.07
2017-09-18T09:24:24.516Z,54.80
2017-09-18T09:26:54.957Z,48.43
2017-09-18T09:29:25.429Z,53.23
2017-09-18T09:31:56.230Z,48.70
2017-09-18T09:34:27.302Z,46.83
2017-09-18T09:36:58.189Z,50.90
2017-09-18T09:41:57.768Z,52.90
2017-09-18T09:44:29.568Z,43.70
2017-09-18T09:47:01.749Z,51.00
2017-09-18T09:49:33.211Z,49.70
2017-09-18T09:52:03.838Z,49.40
2017-09-18T09:54:34.916Z,52.00
2017-09-18T09:57:05.720Z,51.50
2017-09-18T09:59:36.224Z,52.50
2017-09-18T10:02:07.018Z,52.60
2017-09-18T10:04:38.048Z,57.93
2017-09-18T10:07:08.359Z,52.50
2017-09-18T10:09:38.654Z,52.07
2017-09-18T10:12:09.356Z,50.67
2017-09-18T10:14:40.598Z,62.07
2017-09-18T10:17:11.660Z,57.90
2017-09-18T10:19:42.195Z,50.53
2017-09-18T10:22:12.820Z,57.63
2017-09-18T10:24:43.214Z,49.63
2017-09-18T10:27:14.296Z,55.83
2017-09-18T10:29:44.866Z,65.37
2017-09-18T10:32:15.156Z,54.73
2017-09-18T10:34:45.779Z,55.67
2017-09-18T10:37:16.018Z,46.73
2017-09-18T10:39:46.691Z,49.23
2017-09-18T10:42:17.744Z,52.00
2017-09-18T10:44:48.141Z,56.73
2017-09-18T10:47:18.444Z,56.87
2017-09-18T10:49:50.206Z,58.27
2017-09-18T10:52:20.590Z,52.27
2017-09-18T10:54:51.096Z,51.57
2017-09-18T10:57:22.165Z,48.90
2017-09-18T10:59:52.663Z,54.97
2017-09-18T11:02:23.681Z,55.07
2017-09-18T11:04:54.074Z,52.57
2017-09-18T11:07:24.762Z,56.10
2017-09-18T11:09:55.230Z,51.50
2017-09-18T11:12:25.725Z,52.97
2017-09-18T11:14:56.815Z,55.07
2017-09-18T11:17:29.201Z,52.60
2017-09-18T11:20:01.019Z,52.43
2017-09-18T11:22:31.323Z,44.73
2017-09-18T11:25:01.781Z,50.20
2017-09-18T11:27:32.126Z,50.87
2017-09-18T11:30:02.515Z,49.50
2017-09-18T11:32:33.070Z,51.23
2017-09-18T11:35:04.025Z,53.37
2017-09-18T11:37:35.535Z,45.37
2017-09-18T11:40:07.537Z,44.90
2017-09-18T11:42:39.025Z,43.93
2017-09-18T11:45:15.429Z,50.80
2017-09-18T11:47:45.869Z,44.37
2017-09-18T11:50:16.453Z,43.90
2017-09-18T11:52:48.014Z,40.20
2017-09-18T11:55:19.106Z,42.63
2017-09-18T11:57:49.514Z,38.57
2017-09-18T12:00:19.843Z,39.93
2017-09-18T12:02:50.720Z,38.67
2017-09-18T12:05:21.166Z,39.70
2017-09-18T12:07:51.784Z,40.87
2017-09-18T12:10:22.208Z,38.07
2017-09-18T12:12:53.513Z,38.27
2017-09-18T12:15:23.842Z,37.83
2017-09-18T12:17:54.254Z,28.43
2017-09-18T12:20:24.610Z,38.77
2017-09-18T12:22:56.569Z,32.10
2017-09-18T12:25:27.573Z,37.10
2017-09-18T12:27:57.831Z,29.50
2017-09-18T12:30:28.197Z,24.47
2017-09-18T12:32:58.563Z,29.97
2017-09-18T12:35:28.845Z,27.30
2017-09-18T12:38:02.015Z,29.43
2017-09-18T12:40:33.101Z,21.27
2017-09-18T12:43:05.299Z,22.80
2017-09-18T12:45:35.838Z,21.97
2017-09-18T12:48:06.417Z,22.20
2017-09-18T12:50:37.075Z,21.97
2017-09-18T12:53:07.389Z,24.77
2017-09-18T12:55:38.230Z,16.90
2017-09-18T12:58:08.865Z,19.93
2017-09-18T13:00:39.187Z,17.60
2017-09-18T13:03:10.495Z,22.07
2017-09-18T13:05:41.499Z,16.07
2017-09-18T13:08:11.843Z,17.23
2017-09-18T13:10:42.064Z,17.53
2017-09-18T13:13:20.765Z,19.03
2017-09-18T13:15:52.233Z,19.87
2017-09-18T13:18:28.697Z,22.73
2017-09-18T13:20:59.451Z,22.63
2017-09-18T13:23:30.450Z,20.97
2017-09-18T13:26:01.530Z,18.77
2017-09-18T13:28:32.776Z,21.80
2017-09-18T13:31:03.972Z,16.83
2017-09-18T13:33:34.518Z,15.60
2017-09-18T13:36:05.339Z,17.77
2017-09-18T13:38:35.734Z,21.60
2017-09-18T13:41:06.518Z,14.80
2017-09-18T13:43:37.335Z,15.23
2017-09-18T13:46:07.599Z,16.40
2017-09-18T13:48:39.940Z,15.97
2017-09-18T13:51:10.841Z,18.97
2017-09-18T13:53:41.286Z,20.20
2017-09-18T13:56:12.021Z,15.20
2017-09-18T13:58:42.702Z,21.83
2017-09-18T14:01:16.009Z,15.40
2017-09-18T14:03:47.282Z,19.40
2017-09-18T14:06:20.011Z,19.20
2017-09-18T14:08:51.887Z,22.23
2017-09-18T14:11:23.116Z,23.23
2017-09-18T14:13:54.432Z,16.83
2017-09-18T14:16:25.252Z,17.53
2017-09-18T14:18:55.588Z,20.30
2017-09-18T14:21:26.027Z,22.37
2017-09-18T14:23:56.347Z,24.27
2017-09-18T14:26:28.252Z,22.30
2017-09-18T14:28:58.643Z,21.37
2017-09-18T14:31:29.042Z,21.40
2017-09-18T14:34:00.551Z,19.10
2017-09-18T14:36:31.388Z,21.30
2017-09-18T14:39:02.870Z,25.40
2017-09-18T14:41:33.720Z,23.80
2017-09-18T14:44:04.276Z,22.40
2017-09-18T14:46:37.247Z,20.07
2017-09-18T14:49:07.598Z,22.50
2017-09-18T14:51:37.920Z,27.90
2017-09-18T14:54:08.101Z,24.73
2017-09-18T14:56:38.406Z,22.03
2017-09-18T14:59:16.488Z,23.57
2017-09-18T15:01:49.100Z,25.10
2017-09-18T15:04:19.800Z,25.33
2017-09-18T15:06:50.024Z,31.20
2017-09-18T15:09:21.289Z,32.13
2017-09-18T15:11:52.045Z,29.50
2017-09-18T15:14:22.361Z,26.27
2017-09-18T15:16:52.774Z,23.77
2017-09-18T15:19:23.510Z,31.90
2017-09-18T15:21:53.684Z,28.90
2017-09-18T15:24:24.153Z,33.23
2017-09-18T15:26:54.426Z,34.50
2017-09-18T15:29:25.230Z,28.37
2017-09-18T15:31:55.531Z,25.50
2017-09-18T15:34:26.605Z,30.23
2017-09-18T15:36:57.021Z,26.67
2017-09-18T15:39:28.283Z,29.33
2017-09-18T15:41:58.722Z,28.27
2017-09-18T15:44:29.422Z,29.20
2017-09-18T15:47:02.204Z,28.80
2017-09-18T15:49:32.617Z,26.93
2017-09-18T15:52:02.866Z,28.20
2017-09-18T15:54:33.077Z,27.00
2017-09-18T15:57:04.041Z,22.90
2017-09-18T15:59:34.554Z,32.90
2017-09-18T16:02:07.099Z,28.80
2017-09-18T16:04:37.911Z,24.50
2017-09-18T16:07:09.179Z,25.90
2017-09-18T16:09:40.874Z,27.57
2017-09-18T16:12:11.297Z,30.57
2017-09-18T16:14:41.666Z,32.77
2017-09-18T16:17:12.905Z,27.43
2017-09-18T16:19:43.105Z,28.50
2017-09-18T16:22:13.661Z,22.67
2017-09-18T16:24:44.565Z,15.00
2017-09-18T16:27:16.484Z,15.80
2017-09-18T16:29:48.122Z,24.60
2017-09-18T16:32:19.195Z,24.57
2017-09-18T16:34:49.588Z,25.33
2017-09-18T16:37:20.621Z,23.87
2017-09-18T16:39:51.021Z,27.20
2017-09-18T16:42:21.299Z,23.53
2017-09-18T16:44:51.828Z,18.27
2017-09-18T16:47:22.091Z,18.77
2017-09-18T16:49:52.407Z,18.57
2017-09-18T16:52:23.119Z,23.57
2017-09-18T16:54:53.452Z,23.40
2017-09-18T16:57:24.630Z,18.07
2017-09-18T16:59:55.410Z,18.63
2017-09-18T17:02:33.516Z,20.20
2017-09-18T17:05:07.410Z,15.87
2017-09-18T17:07:38.073Z,15.70
2017-09-18T17:10:09.820Z,19.57
2017-09-18T17:12:40.462Z,27.73
2017-09-18T17:15:11.449Z,26.27
2017-09-18T17:17:43.571Z,28.77
2017-09-18T17:20:17.286Z,27.07
2017-09-18T17:22:48.593Z,25.90
2017-09-18T17:25:20.856Z,26.10
2017-09-18T17:27:53.121Z,25.90
2017-09-18T17:30:24.027Z,17.47
2017-09-18T17:32:56.768Z,21.50
2017-09-18T17:35:33.688Z,15.20
2017-09-18T17:38:07.948Z,10.70
2017-09-18T17:40:39.491Z,9.17
2017-09-18T17:43:11.609Z,12.93
2017-09-18T17:45:45.588Z,8.90
2017-09-18T17:48:21.536Z,10.03
2017-09-18T17:50:51.917Z,8.47
2017-09-18T17:53:27.535Z,6.60
2017-09-18T17:56:01.583Z,10.03
2017-09-18T17:58:42.669Z,9.57
2017-09-18T18:01:18.833Z,7.90
2017-09-18T18:03:52.633Z,9.93
2017-09-18T18:06:28.855Z,7.87
2017-09-18T18:08:59.590Z,9.33
2017-09-18T18:11:30.347Z,7.20
2017-09-18T18:14:00.932Z,7.53
2017-09-18T18:16:31.520Z,9.33
2017-09-18T18:19:02.662Z,10.00
2017-09-18T18:21:33.083Z,8.40
2017-09-18T18:24:03.778Z,8.87
2017-09-18T18:26:34.445Z,7.07
2017-09-18T18:29:05.466Z,5.40
2017-09-18T18:31:36.372Z,8.70
2017-09-18T18:34:07.035Z,8.57
2017-09-18T18:36:37.736Z,6.03
2017-09-18T18:39:08.947Z,7.00
2017-09-18T18:41:40.393Z,8.60
2017-09-18T18:44:11.745Z,5.60
2017-09-18T18:46:43.012Z,7.87
2017-09-18T18:49:13.759Z,5.20
2017-09-18T18:51:44.514Z,6.10
2017-09-18T18:54:15.230Z,4.80
2017-09-18T18:56:46.141Z,5.80
2017-09-18T18:59:26.151Z,6.00
2017-09-18T19:02:23.657Z,5.43
2017-09-18T19:05:45.283Z,5.93
2017-09-18T19:08:16.987Z,5.50
2017-09-18T19:10:47.930Z,5.10
2017-09-18T19:13:19.417Z,4.43
2017-09-18T19:15:49.811Z,6.60
2017-09-18T19:18:20.197Z,4.20
2017-09-18T19:21:10.843Z,4.00
2017-09-18T19:23:53.332Z,3.10
2017-09-18T19:26:41.521Z,4.50
2017-09-18T19:29:21.253Z,4.80
2017-09-18T19:35:48.044Z,5.13
2017-09-18T19:38:36.520Z,6.03
2017-09-18T19:41:16.262Z,5.33
2017-09-18T19:44:10.740Z,4.30
2017-09-18T19:47:17.213Z,4.93
2017-09-18T19:50:01.119Z,4.70
2017-09-18T19:52:41.230Z,3.00
2017-09-18T19:55:29.355Z,3.43
2017-09-18T19:58:20.418Z,4.00
2017-09-18T20:01:17.060Z,3.80
2017-09-18T20:03:59.907Z,4.30
2017-09-18T20:07:04.833Z,6.47
2017-09-18T20:10:42.200Z,4.83
2017-09-18T20:17:29.990Z,7.87
2017-09-18T20:20:20.028Z,7.27
2017-09-18T20:23:16.008Z,7.37
2017-09-18T20:26:04.452Z,10.13
2017-09-18T20:28:58.415Z,7.90
2017-09-18T20:31:49.285Z,10.20
2017-09-18T20:34:24.734Z,13.37
2017-09-18T20:36:55.386Z,9.07
2017-09-18T20:39:25.642Z,11.50
2017-09-18T20:41:55.957Z,11.23
2017-09-18T20:44:26.165Z,16.63
2017-09-18T20:46:56.382Z,11.40
2017-09-18T20:49:27.198Z,13.73
2017-09-18T20:51:57.567Z,14.03
2017-09-18T20:54:28.214Z,9.13
2017-09-18T20:56:58.583Z,14.03
2017-09-18T20:59:28.926Z,10.37
2017-09-18T21:01:59.278Z,12.33
2017-09-18T21:04:31.247Z,10.03
2017-09-18T21:07:01.910Z,12.13
2017-09-18T21:09:32.509Z,11.80
2017-09-18T21:12:03.998Z,16.50
2017-09-18T21:14:35.100Z,15.00
2017-09-18T21:17:05.843Z,16.67
2017-09-18T21:19:36.887Z,18.53
2017-09-18T21:22:07.921Z,18.67
2017-09-18T21:24:39.205Z,21.73
2017-09-18T21:27:10.349Z,21.03
2017-09-18T21:29:41.447Z,19.43
2017-09-18T21:32:12.071Z,20.33
2017-09-18T21:34:43.039Z,26.77
2017-09-18T21:37:13.366Z,18.00
2017-09-18T21:39:44.441Z,24.10
2017-09-18T21:42:15.264Z,21.47
2017-09-18T21:44:45.742Z,25.63
2017-09-18T21:47:16.328Z,23.07
2017-09-18T21:49:48.883Z,29.57
2017-09-18T21:52:19.293Z,29.27
2017-09-18T21:54:50.248Z,24.37
2017-09-18T21:57:20.748Z,23.47
2017-09-18T21:59:51.688Z,24.10
2017-09-18T22:02:22.290Z,30.33
2017-09-18T22:04:53.491Z,26.23
2017-09-18T22:07:23.826Z,29.10
2017-09-18T22:09:55.535Z,25.77
2017-09-18T22:12:25.904Z,28.17
2017-09-18T22:14:56.520Z,23.03
2017-09-18T22:17:26.891Z,30.77
2017-09-18T22:19:57.076Z,21.93
2017-09-18T22:22:27.738Z,25.10
2017-09-18T22:24:59.367Z,19.00
2017-09-18T22:27:31.404Z,28.80
2017-09-18T22:30:02.195Z,28.17
2017-09-18T22:32:32.781Z,30.60
2017-09-18T22:35:04.869Z,27.37
2017-09-18T22:37:36.247Z,22.27
2017-09-18T22:40:07.138Z,25.73
2017-09-18T22:42:38.781Z,18.00
2017-09-18T22:45:09.502Z,17.23
2017-09-18T22:47:40.735Z,25.30
2017-09-18T22:50:11.361Z,21.97
2017-09-18T22:52:42.614Z,36.60
2017-09-18T22:55:13.324Z,36.70
2017-09-18T22:57:43.668Z,32.80
2017-09-18T23:00:14.510Z,38.50
2017-09-18T23:02:46.369Z,46.17
2017-09-18T23:05:17.383Z,44.13
2017-09-18T23:07:48.562Z,31.53
2017-09-18T23:10:18.994Z,45.43
2017-09-18T23:12:49.707Z,31.63
2017-09-18T23:15:21.223Z,27.20
2017-09-18T23:17:51.895Z,39.40
2017-09-18T23:20:22.607Z,40.13
2017-09-18T23:22:53.239Z,37.53
2017-09-18T23:25:24.025Z,49.93
2017-09-18T23:27:54.866Z,55.23
2017-09-18T23:30:25.706Z,43.70
2017-09-18T23:32:56.037Z,52.60
2017-09-18T23:35:27.131Z,50.60
2017-09-18T23:37:57.823Z,48.50
2017-09-18T23:40:28.902Z,51.63
2017-09-18T23:42:59.674Z,58.77
2017-09-18T23:45:30.173Z,52.57
2017-09-18T23:48:00.999Z,48.20
2017-09-18T23:50:31.486Z,54.00
2017-09-18T23:53:02.750Z,59.00
2017-09-18T23:55:33.206Z,44.67
2017-09-18T23:58:03.485Z,56.23
